TimeCDT,TemperatureF,Dew PointF,Humidity,Sea Level PressureIn,VisibilityMPH,Wind Direction,Wind SpeedMPH,Gust SpeedMPH,PrecipitationIn,Events,Conditions,WindDirDegrees,DateUTC
12:35 AM,64.4,59.0,83,29.76,10.0,South,19.6,24.2,N/A,,Overcast,180,2012-10-14 05:35:00
12:55 AM,64.4,59.0,83,29.78,10.0,South,19.6,27.6,N/A,,Overcast,190,2012-10-14 05:55:00
1:15 AM,64.4,59.0,83,29.77,10.0,South,17.3,23.0,N/A,,Overcast,190,2012-10-14 06:15:00
2:36 AM,64.4,59.0,83,29.76,10.0,SSW,12.7,-,N/A,,Mostly Cloudy,200,2012-10-14 07:36:00
2:55 AM,62.6,59.0,88,29.76,10.0,SSW,16.1,21.9,N/A,,Mostly Cloudy,200,2012-10-14 07:55:00
3:15 AM,62.6,59.0,88,29.76,10.0,SSW,16.1,-,N/A,,Partly Cloudy,200,2012-10-14 08:15:00
3:55 AM,62.6,57.2,82,29.76,10.0,SSW,16.1,-,N/A,,Clear,210,2012-10-14 08:55:00
4:15 AM,62.6,57.2,82,29.76,10.0,SSW,17.3,23.0,N/A,,Clear,210,2012-10-14 09:15:00
4:35 AM,62.6,57.2,82,29.77,10.0,SW,18.4,-,N/A,,Clear,220,2012-10-14 09:35:00
5:15 AM,62.6,55.4,77,29.78,10.0,SW,16.1,-,N/A,,Clear,220,2012-10-14 10:15:00
5:35 AM,60.8,55.4,82,29.80,10.0,SW,12.7,-,N/A,,Clear,230,2012-10-14 10:35:00
5:55 AM,60.8,55.4,82,29.80,10.0,SW,15.0,-,N/A,,Clear,220,2012-10-14 10:55:00
6:15 AM,60.8,53.6,77,29.80,10.0,SW,13.8,17.3,N/A,,Clear,220,2012-10-14 11:15:00
7:15 AM,59.0,51.8,77,29.83,10.0,SW,12.7,-,N/A,,Clear,230,2012-10-14 12:15:00
7:55 AM,59.0,51.8,77,29.87,10.0,WSW,11.5,-,N/A,,Clear,250,2012-10-14 12:55:00
8:15 AM,59.0,51.8,77,29.89,10.0,WSW,15.0,19.6,N/A,,Clear,250,2012-10-14 13:15:00
8:35 AM,60.8,51.8,72,29.90,10.0,WSW,15.0,-,N/A,,Scattered Clouds,250,2012-10-14 13:35:00
8:55 AM,60.8,50.0,68,29.92,10.0,West,13.8,20.7,N/A,,Mostly Cloudy,260,2012-10-14 13:55:00
9:15 AM,60.8,51.8,72,29.93,10.0,West,13.8,19.6,N/A,,Mostly Cloudy,260,2012-10-14 14:15:00
9:16 AM,60.8,51.8,72,29.93,10.0,WSW,13.8,19.6,N/A,,Scattered Clouds,250,2012-10-14 14:16:00
9:35 AM,62.6,51.8,68,29.93,10.0,WSW,10.4,18.4,N/A,,Partly Cloudy,250,2012-10-14 14:35:00
9:55 AM,62.6,51.8,68,29.94,10.0,WSW,11.5,-,N/A,,Clear,250,2012-10-14 14:55:00
10:35 AM,64.4,53.6,68,29.96,10.0,West,12.7,-,N/A,,Clear,270,2012-10-14 15:35:00
10:55 AM,64.4,53.6,68,29.97,10.0,West,12.7,17.3,N/A,,Clear,270,2012-10-14 15:55:00
11:35 AM,66.2,53.6,64,30.00,10.0,West,17.3,-,N/A,,Scattered Clouds,270,2012-10-14 16:35:00
12:15 PM,66.2,53.6,64,30.02,10.0,West,15.0,-,N/A,,Overcast,270,2012-10-14 17:15:00
12:35 PM,68.0,53.6,60,30.02,10.0,West,11.5,19.6,N/A,,Scattered Clouds,280,2012-10-14 17:35:00
12:55 PM,69.8,53.6,56,30.02,10.0,West,11.5,-,N/A,,Scattered Clouds,260,2012-10-14 17:55:00
1:15 PM,69.8,53.6,56,30.02,10.0,West,10.4,17.3,N/A,,Scattered Clouds,280,2012-10-14 18:15:00
2:15 PM,71.6,51.8,50,30.01,10.0,WNW,17.3,-,N/A,,Scattered Clouds,290,2012-10-14 19:15:00
2:35 PM,71.6,53.6,53,30.02,10.0,WNW,15.0,18.4,N/A,,Scattered Clouds,290,2012-10-14 19:35:00
2:56 PM,71.6,51.8,50,30.02,10.0,West,17.3,21.9,N/A,,Partly Cloudy,280,2012-10-14 19:56:00
3:15 PM,71.6,50.0,46,30.02,10.0,WNW,16.1,23.0,N/A,,Clear,290,2012-10-14 20:15:00
3:35 PM,71.6,50.0,46,30.02,10.0,WNW,15.0,-,N/A,,Clear,290,2012-10-14 20:35:00
3:56 PM,71.6,48.2,43,30.03,10.0,WNW,15.0,20.7,N/A,,Clear,300,2012-10-14 20:56:00
4:15 PM,71.6,46.4,41,30.03,10.0,NNW,16.1,21.9,N/A,,Clear,330,2012-10-14 21:15:00
4:35 PM,71.6,46.4,41,30.03,10.0,WNW,13.8,-,N/A,,Clear,300,2012-10-14 21:35:00
4:55 PM,71.6,48.2,43,30.03,10.0,WNW,12.7,-,N/A,,Clear,300,2012-10-14 21:55:00
5:15 PM,69.8,46.4,43,30.03,10.0,NW,12.7,18.4,N/A,,Clear,310,2012-10-14 22:15:00
5:35 PM,69.8,48.2,46,30.04,10.0,WNW,11.5,-,N/A,,Clear,300,2012-10-14 22:35:00
5:55 PM,68.0,48.2,49,30.04,10.0,WNW,9.2,-,N/A,,Clear,300,2012-10-14 22:55:00
6:16 PM,66.2,46.4,49,30.04,10.0,WNW,8.1,-,N/A,,Clear,290,2012-10-14 23:16:00
6:35 PM,64.4,46.4,52,30.05,10.0,WNW,4.6,-,N/A,,Clear,290,2012-10-14 23:35:00
6:55 PM,62.6,46.4,55,30.05,10.0,NW,5.8,-,N/A,,Clear,320,2012-10-14 23:55:00
7:15 PM,60.8,46.4,59,30.05,10.0,NW,4.6,-,N/A,,Clear,310,2012-10-15 00:15:00
7:35 PM,60.8,44.6,55,30.06,10.0,Calm,Calm,-,N/A,,Clear,0,2012-10-15 00:35:00
7:55 PM,60.8,44.6,55,30.06,10.0,Calm,Calm,-,N/A,,Clear,0,2012-10-15 00:55:00
8:15 PM,60.8,44.6,55,30.06,10.0,Calm,Calm,-,N/A,,Clear,0,2012-10-15 01:15:00
9:15 PM,57.2,44.6,63,30.07,6.0,Calm,Calm,-,N/A,,Clear,0,2012-10-15 02:15:00
9:55 PM,57.2,44.6,63,30.09,9.0,Calm,Calm,-,N/A,,Clear,0,2012-10-15 02:55:00
10:15 PM,55.4,44.6,67,30.09,10.0,Calm,Calm,-,N/A,,Clear,0,2012-10-15 03:15:00
10:35 PM,55.4,44.6,67,30.09,10.0,Calm,Calm,-,N/A,,Clear,0,2012-10-15 03:35:00
11:15 PM,55.4,44.6,67,30.10,10.0,Calm,Calm,-,N/A,,Clear,0,2012-10-15 04:15:00
11:35 PM,53.6,44.6,72,30.10,10.0,Calm,Calm,-,N/A,,Clear,0,2012-10-15 04:35:00
11:55 PM,51.8,44.6,76,30.10,10.0,Calm,Calm,-,N/A,,Clear,0,2012-10-15 04:55:00